createdAt,value
2018-07-21T00:00:49.117Z,6.37
2018-07-21T00:03:17.591Z,8.20
2018-07-21T00:05:46.065Z,5.97
2018-07-21T00:08:14.531Z,6.07
2018-07-21T00:10:43.059Z,6.93
2018-07-21T00:13:11.551Z,8.33
2018-07-21T00:15:40.001Z,5.60
2018-07-21T00:18:08.499Z,5.50
2018-07-21T00:20:36.979Z,5.37
2018-07-21T00:23:05.464Z,6.83
2018-07-21T00:25:33.952Z,5.73
2018-07-21T00:28:02.437Z,5.97
2018-07-21T00:30:30.877Z,7.33
2018-07-21T00:32:59.363Z,7.13
2018-07-21T00:35:27.839Z,6.40
2018-07-21T00:37:56.355Z,7.80
2018-07-21T00:40:24.901Z,5.27
2018-07-21T00:42:53.383Z,5.10
2018-07-21T00:45:21.841Z,7.23
2018-07-21T00:47:50.324Z,6.83
2018-07-21T00:50:18.768Z,10.20
2018-07-21T00:52:47.258Z,7.23
2018-07-21T00:55:15.783Z,7.60
2018-07-21T00:57:45.043Z,6.40
2018-07-21T01:00:13.492Z,5.23
2018-07-21T01:02:42.043Z,5.33
2018-07-21T01:05:10.509Z,7.17
2018-07-21T01:07:39.006Z,5.30
2018-07-21T01:10:07.681Z,6.67
2018-07-21T01:12:36.679Z,8.77
2018-07-21T01:15:05.864Z,6.37
2018-07-21T01:17:34.337Z,6.80
2018-07-21T01:20:02.920Z,6.40
2018-07-21T01:22:31.408Z,9.20
2018-07-21T01:24:59.844Z,7.30
2018-07-21T01:27:28.368Z,6.50
2018-07-21T01:29:56.873Z,9.83
2018-07-21T01:32:25.352Z,6.00
2018-07-21T01:34:53.833Z,6.27
2018-07-21T01:37:22.310Z,7.03
2018-07-21T01:39:50.823Z,12.57
2018-07-21T01:42:19.291Z,6.63
2018-07-21T01:44:47.923Z,7.03
2018-07-21T01:47:16.396Z,6.67
2018-07-21T01:49:44.904Z,9.90
2018-07-21T01:52:13.359Z,7.53
2018-07-21T01:54:41.950Z,8.70
2018-07-21T01:57:11.044Z,7.47
2018-07-21T01:59:39.503Z,7.90
2018-07-21T02:02:07.961Z,8.87
2018-07-21T02:04:36.440Z,5.73
2018-07-21T02:07:05.136Z,6.83
2018-07-21T02:09:33.658Z,8.60
2018-07-21T02:12:02.095Z,8.37
2018-07-21T02:14:30.584Z,7.13
2018-07-21T02:17:00.124Z,7.67
2018-07-21T02:19:28.589Z,6.37
2018-07-21T02:21:57.072Z,5.80
2018-07-21T02:24:25.535Z,7.43
2018-07-21T02:26:53.992Z,7.10
2018-07-21T02:29:22.573Z,6.10
2018-07-21T02:31:51.148Z,6.13
2018-07-21T02:34:19.727Z,8.03
2018-07-21T02:36:48.224Z,7.07
2018-07-21T02:39:16.750Z,6.07
2018-07-21T02:41:45.179Z,6.50
2018-07-21T02:44:13.631Z,6.50
2018-07-21T02:46:42.106Z,6.60
2018-07-21T02:49:10.576Z,8.70
2018-07-21T02:51:39.073Z,8.07
2018-07-21T02:54:07.585Z,8.77
2018-07-21T02:56:36.081Z,6.27
2018-07-21T02:59:04.546Z,8.07
2018-07-21T03:01:32.995Z,7.40
2018-07-21T03:04:01.472Z,6.73
2018-07-21T03:06:29.912Z,8.60
2018-07-21T03:08:58.396Z,5.47
2018-07-21T03:11:26.855Z,9.93
2018-07-21T03:13:55.328Z,9.27
2018-07-21T03:16:23.841Z,7.50
2018-07-21T03:18:52.361Z,6.43
2018-07-21T03:21:20.874Z,7.77
2018-07-21T03:23:49.398Z,8.13
2018-07-21T03:26:17.870Z,6.53
2018-07-21T03:28:46.345Z,6.63
2018-07-21T03:31:14.827Z,6.17
2018-07-21T03:33:43.277Z,9.87
2018-07-21T03:36:11.796Z,7.50
2018-07-21T03:38:40.303Z,6.77
2018-07-21T03:41:08.772Z,9.30
2018-07-21T03:43:37.229Z,9.40
2018-07-21T03:46:05.884Z,7.43
2018-07-21T03:48:34.362Z,10.10
2018-07-21T03:51:02.827Z,7.43
2018-07-21T03:53:31.317Z,11.27
2018-07-21T03:55:59.771Z,8.43
2018-07-21T03:58:28.213Z,6.77
2018-07-21T04:00:56.692Z,6.43
2018-07-21T04:03:25.165Z,5.90
2018-07-21T04:05:53.671Z,10.07
2018-07-21T04:08:22.136Z,9.47
2018-07-21T04:10:50.623Z,8.93
2018-07-21T04:13:19.076Z,9.93
2018-07-21T04:15:47.586Z,10.13
2018-07-21T04:18:16.043Z,7.50
2018-07-21T04:20:44.488Z,8.27
2018-07-21T04:23:12.937Z,6.97
2018-07-21T04:25:41.428Z,14.17
2018-07-21T04:28:09.947Z,42.40
2018-07-21T04:30:38.475Z,29.47
2018-07-21T04:33:07.958Z,8.03
2018-07-21T04:35:36.506Z,18.60
2018-07-21T04:38:05.156Z,39.37
2018-07-21T04:40:33.718Z,46.90
2018-07-21T04:43:02.197Z,13.53
2018-07-21T04:45:30.685Z,13.33
2018-07-21T04:47:59.163Z,13.47
2018-07-21T04:50:27.639Z,11.77
2018-07-21T04:52:56.099Z,9.63
2018-07-21T04:55:24.596Z,5.70
2018-07-21T04:57:53.781Z,9.70
2018-07-21T05:00:22.296Z,16.03
2018-07-21T05:02:50.782Z,10.87
2018-07-21T05:05:19.351Z,8.83
2018-07-21T05:07:47.842Z,10.20
2018-07-21T05:10:16.343Z,10.53
2018-07-21T05:12:44.808Z,10.77
2018-07-21T05:15:13.272Z,9.17
2018-07-21T05:17:41.735Z,10.50
2018-07-21T05:20:10.268Z,9.23
2018-07-21T05:22:38.675Z,9.13
2018-07-21T05:25:07.126Z,13.40
2018-07-21T05:27:35.656Z,19.67
2018-07-21T05:30:04.752Z,9.67
2018-07-21T05:32:33.336Z,10.60
2018-07-21T05:35:01.823Z,9.87
2018-07-21T05:37:30.279Z,10.77
2018-07-21T05:39:58.760Z,31.67
2018-07-21T05:42:27.246Z,38.40
2018-07-21T05:44:55.707Z,31.90
2018-07-21T05:47:24.331Z,42.67
2018-07-21T05:49:52.788Z,39.27
2018-07-21T05:52:21.296Z,25.43
2018-07-21T05:54:49.786Z,16.27
2018-07-21T05:57:18.292Z,15.57
2018-07-21T05:59:46.759Z,22.73
2018-07-21T06:02:15.253Z,8.73
2018-07-21T06:04:43.756Z,13.93
2018-07-21T06:07:12.327Z,10.40
2018-07-21T06:09:40.817Z,15.87
2018-07-21T06:12:09.303Z,11.10
2018-07-21T06:16:07.090Z,11.27
2018-07-21T06:18:35.891Z,10.17
2018-07-21T06:21:04.743Z,15.23
2018-07-21T06:23:33.624Z,8.23
2018-07-21T06:26:02.981Z,9.10
2018-07-21T06:28:40.500Z,9.03
2018-07-21T06:31:21.527Z,11.00
2018-07-21T06:33:54.409Z,10.00
2018-07-21T06:36:26.020Z,10.47
2018-07-21T06:38:56.110Z,6.80
2018-07-21T06:41:26.264Z,8.77
2018-07-21T06:43:58.917Z,10.10
2018-07-21T06:46:27.721Z,9.03
2018-07-21T06:48:56.665Z,14.60
2018-07-21T06:51:25.499Z,10.87
2018-07-21T06:53:54.346Z,10.20
2018-07-21T06:56:23.242Z,8.53
2018-07-21T06:58:52.181Z,8.77
2018-07-21T07:01:21.020Z,7.67
2018-07-21T07:03:49.875Z,12.57
2018-07-21T07:06:18.701Z,8.13
2018-07-21T07:08:47.592Z,8.83
2018-07-21T07:11:16.442Z,10.80
2018-07-21T07:13:45.328Z,6.87
2018-07-21T07:16:14.229Z,9.17
2018-07-21T07:18:43.231Z,13.50
2018-07-21T07:21:12.136Z,11.47
2018-07-21T07:23:40.980Z,8.63
2018-07-21T07:26:09.864Z,6.67
2018-07-21T07:28:38.819Z,6.23
2018-07-21T07:31:07.645Z,7.90
2018-07-21T07:33:36.519Z,12.90
2018-07-21T07:36:05.422Z,13.40
2018-07-21T07:38:34.305Z,10.93
2018-07-21T07:41:03.146Z,15.97
2018-07-21T07:43:31.747Z,10.30
2018-07-21T07:46:00.375Z,13.23
2018-07-21T07:48:28.848Z,10.43
2018-07-21T07:51:00.525Z,9.57
2018-07-21T07:53:29.016Z,8.60
2018-07-21T07:55:58.017Z,10.10
2018-07-21T07:58:26.485Z,8.40
2018-07-21T08:00:54.940Z,13.33
2018-07-21T08:03:23.433Z,7.80
2018-07-21T08:05:51.867Z,8.37
2018-07-21T08:08:20.382Z,8.80
2018-07-21T08:10:48.872Z,6.30
2018-07-21T08:13:17.369Z,8.77
2018-07-21T08:15:45.831Z,12.50
2018-07-21T08:18:14.343Z,8.60
2018-07-21T08:20:42.748Z,9.37
2018-07-21T08:23:11.238Z,22.07
2018-07-21T08:25:39.747Z,23.83
2018-07-21T08:28:08.228Z,23.40
2018-07-21T08:30:36.726Z,20.03
2018-07-21T08:33:05.247Z,17.73
2018-07-21T08:35:33.724Z,10.87
2018-07-21T08:38:02.192Z,9.60
2018-07-21T08:40:30.651Z,7.73
2018-07-21T08:42:59.131Z,9.50
2018-07-21T08:45:27.613Z,7.63
2018-07-21T08:47:56.094Z,8.97
2018-07-21T08:50:24.629Z,10.00
2018-07-21T08:52:53.122Z,8.37
2018-07-21T08:55:21.664Z,7.90
2018-07-21T08:57:50.134Z,9.07
2018-07-21T09:00:18.652Z,11.03
2018-07-21T09:02:47.120Z,12.00
2018-07-21T09:05:15.642Z,23.57
2018-07-21T09:07:44.139Z,24.37
2018-07-21T09:10:12.624Z,17.67
2018-07-21T09:12:41.086Z,16.63
2018-07-21T09:15:09.735Z,15.03
2018-07-21T09:17:38.224Z,15.63
2018-07-21T09:20:06.724Z,9.23
2018-07-21T09:22:35.207Z,9.07
2018-07-21T09:25:03.689Z,11.30
2018-07-21T09:27:32.148Z,7.33
2018-07-21T09:30:00.641Z,9.63
2018-07-21T09:32:32.837Z,11.00
2018-07-21T09:35:01.327Z,8.30
2018-07-21T09:37:29.760Z,10.63
2018-07-21T09:39:58.272Z,11.33
2018-07-21T09:42:26.779Z,6.83
2018-07-21T09:44:55.220Z,8.67
2018-07-21T09:47:23.684Z,8.07
2018-07-21T09:49:52.214Z,6.33
2018-07-21T09:52:20.707Z,8.37
2018-07-21T09:54:49.169Z,9.17
2018-07-21T09:57:17.636Z,6.97
2018-07-21T09:59:46.113Z,9.47
2018-07-21T10:02:14.716Z,7.53
2018-07-21T10:04:43.188Z,7.30
2018-07-21T10:07:11.767Z,14.77
2018-07-21T10:09:40.274Z,7.97
2018-07-21T10:12:08.856Z,10.27
2018-07-21T10:14:37.410Z,7.70
2018-07-21T10:17:06.053Z,8.00
2018-07-21T10:19:34.572Z,8.57
2018-07-21T10:22:03.079Z,7.00
2018-07-21T10:24:37.040Z,7.87
2018-07-21T10:27:11.596Z,6.80
2018-07-21T10:29:40.136Z,7.87
2018-07-21T10:32:08.774Z,7.37
2018-07-21T10:34:37.229Z,10.00
2018-07-21T10:37:05.692Z,7.53
2018-07-21T10:39:34.167Z,7.20
2018-07-21T10:42:02.654Z,7.70
2018-07-21T10:44:31.212Z,8.07
2018-07-21T10:46:59.640Z,9.10
2018-07-21T10:49:28.115Z,7.53
2018-07-21T10:51:56.572Z,9.23
2018-07-21T10:54:25.069Z,11.50
2018-07-21T10:56:53.545Z,8.57
2018-07-21T10:59:22.011Z,8.20
2018-07-21T11:01:50.633Z,8.33
2018-07-21T11:04:19.076Z,8.17
2018-07-21T11:06:47.572Z,8.27
2018-07-21T11:09:16.069Z,10.20
2018-07-21T11:11:44.559Z,9.13
2018-07-21T11:14:12.995Z,7.67
2018-07-21T11:16:41.496Z,8.27
2018-07-21T11:19:09.977Z,10.60
2018-07-21T11:21:38.449Z,7.17
2018-07-21T11:24:06.921Z,7.27
2018-07-21T11:26:35.405Z,8.50
2018-07-21T11:29:03.880Z,8.90
2018-07-21T11:31:32.369Z,9.40
2018-07-21T11:34:00.854Z,8.10
2018-07-21T11:36:29.361Z,7.97
2018-07-21T11:38:57.772Z,7.57
2018-07-21T11:41:29.559Z,7.77
2018-07-21T11:43:58.044Z,7.93
2018-07-21T11:46:26.506Z,8.03
2018-07-21T11:48:54.947Z,6.57
2018-07-21T11:51:23.448Z,8.20
2018-07-21T11:53:51.891Z,7.77
2018-07-21T11:56:20.579Z,9.27
2018-07-21T11:58:49.033Z,7.30
2018-07-21T12:01:17.508Z,7.30
2018-07-21T12:03:45.953Z,8.03
2018-07-21T12:06:14.431Z,10.13
2018-07-21T12:08:45.908Z,7.67
2018-07-21T12:11:14.404Z,7.37
2018-07-21T12:13:42.941Z,7.07
2018-07-21T12:16:11.352Z,7.87
2018-07-21T12:18:39.795Z,7.93
2018-07-21T12:21:08.268Z,8.17
2018-07-21T12:23:37.577Z,7.60
2018-07-21T12:26:06.156Z,6.77
2018-07-21T12:28:34.685Z,8.77
2018-07-21T12:31:03.193Z,6.93
2018-07-21T12:33:31.746Z,7.13
2018-07-21T12:36:00.208Z,7.53
2018-07-21T12:38:28.664Z,9.63
2018-07-21T12:40:57.132Z,8.37
2018-07-21T12:43:25.705Z,9.47
2018-07-21T12:45:54.272Z,8.10
2018-07-21T12:48:22.769Z,7.10
2018-07-21T12:50:51.279Z,12.07
2018-07-21T12:53:19.766Z,8.23
2018-07-21T12:55:48.283Z,7.97
2018-07-21T12:58:17.031Z,8.97
2018-07-21T13:00:45.532Z,11.10
2018-07-21T13:03:14.035Z,8.77
2018-07-21T13:05:42.476Z,9.83
2018-07-21T13:08:10.956Z,7.93
2018-07-21T13:10:39.495Z,8.03
2018-07-21T13:13:07.991Z,7.30
2018-07-21T13:15:36.507Z,8.67
2018-07-21T13:18:05.044Z,8.27
2018-07-21T13:20:33.526Z,8.47
2018-07-21T13:23:02.015Z,9.00
2018-07-21T13:25:30.520Z,7.30
2018-07-21T13:27:59.001Z,7.97
2018-07-21T13:30:27.458Z,9.27
2018-07-21T13:32:55.918Z,9.90
2018-07-21T13:35:24.416Z,7.87
2018-07-21T13:37:52.950Z,7.83
2018-07-21T13:40:21.681Z,12.43
2018-07-21T13:42:50.208Z,7.00
2018-07-21T13:45:18.713Z,10.40
2018-07-21T13:47:47.213Z,8.60
2018-07-21T13:50:15.669Z,7.10
2018-07-21T13:52:44.175Z,7.90
2018-07-21T13:55:12.656Z,8.03
2018-07-21T13:57:41.140Z,6.67
2018-07-21T14:00:09.581Z,6.73
2018-07-21T14:02:38.086Z,6.40
2018-07-21T14:05:06.583Z,9.00
2018-07-21T14:07:35.084Z,6.60
2018-07-21T14:10:03.600Z,6.83
2018-07-21T14:12:32.324Z,9.63
2018-07-21T14:15:00.786Z,8.43
2018-07-21T14:17:29.269Z,9.13
2018-07-21T14:19:57.729Z,10.00
2018-07-21T14:22:26.212Z,8.03
2018-07-21T14:24:54.692Z,10.27
2018-07-21T14:27:23.170Z,9.43
2018-07-21T14:29:51.757Z,7.97
2018-07-21T14:32:20.215Z,9.37
2018-07-21T14:34:48.830Z,8.17
2018-07-21T14:37:17.303Z,8.17
2018-07-21T14:39:45.760Z,7.17
2018-07-21T14:42:14.224Z,6.83
2018-07-21T14:44:42.751Z,7.03
2018-07-21T14:47:11.918Z,10.23
2018-07-21T14:49:40.406Z,9.87
2018-07-21T14:52:08.926Z,8.27
2018-07-21T14:54:37.487Z,8.40
2018-07-21T14:57:05.926Z,7.10
2018-07-21T14:59:34.408Z,7.53
2018-07-21T15:02:02.914Z,7.13
2018-07-21T15:04:31.372Z,7.27
2018-07-21T15:06:59.890Z,8.07
2018-07-21T15:09:28.365Z,6.93
2018-07-21T15:11:56.858Z,7.03
2018-07-21T15:14:25.343Z,8.43
2018-07-21T15:16:53.814Z,7.57
2018-07-21T15:19:22.296Z,9.17
2018-07-21T15:21:50.988Z,8.03
2018-07-21T15:24:19.468Z,9.00
2018-07-21T15:26:47.939Z,8.87
2018-07-21T15:29:16.428Z,12.63
2018-07-21T15:31:44.900Z,12.27
2018-07-21T15:34:13.383Z,11.27
2018-07-21T15:36:41.880Z,10.90
2018-07-21T15:39:10.587Z,13.43
2018-07-21T15:41:39.072Z,10.10
2018-07-21T15:44:07.563Z,10.10
2018-07-21T15:46:36.048Z,8.93
2018-07-21T15:49:04.675Z,8.97
2018-07-21T15:51:33.153Z,9.63
2018-07-21T15:54:01.716Z,9.90
2018-07-21T15:56:30.140Z,12.13
2018-07-21T15:58:58.694Z,11.60
2018-07-21T16:01:27.199Z,10.10
2018-07-21T16:03:56.108Z,10.37
2018-07-21T16:06:24.617Z,11.80
2018-07-21T16:08:53.114Z,11.97
2018-07-21T16:11:21.745Z,11.93
2018-07-21T16:13:50.613Z,12.20
2018-07-21T16:16:19.043Z,13.00
2018-07-21T16:18:47.528Z,14.53
2018-07-21T16:21:15.992Z,12.87
2018-07-21T16:23:44.485Z,10.57
2018-07-21T16:26:12.976Z,9.40
2018-07-21T16:28:41.675Z,11.77
2018-07-21T16:31:10.214Z,14.33
2018-07-21T16:33:38.685Z,13.53
2018-07-21T16:36:07.170Z,19.40
2018-07-21T16:38:35.845Z,31.07
2018-07-21T16:41:04.308Z,32.70
2018-07-21T16:43:32.764Z,27.90
2018-07-21T16:46:01.235Z,22.80
2018-07-21T16:48:29.698Z,25.27
2018-07-21T16:50:58.229Z,29.73
2018-07-21T16:53:26.711Z,22.20
2018-07-21T16:55:55.203Z,23.23
2018-07-21T16:58:23.695Z,21.60
2018-07-21T17:00:52.446Z,25.33
2018-07-21T17:03:20.935Z,24.60
2018-07-21T17:05:49.441Z,24.23
2018-07-21T17:08:18.091Z,24.17
2018-07-21T17:10:46.671Z,23.43
2018-07-21T17:13:15.386Z,22.03
2018-07-21T17:15:43.860Z,20.57
2018-07-21T17:18:12.397Z,17.73
2018-07-21T17:20:40.890Z,18.87
2018-07-21T17:23:09.375Z,14.67
2018-07-21T17:25:37.972Z,16.63
2018-07-21T17:28:06.475Z,12.50
2018-07-21T17:30:35.039Z,11.97
2018-07-21T17:33:03.524Z,10.03
2018-07-21T17:35:32.017Z,18.97
2018-07-21T17:38:00.490Z,15.67
2018-07-21T17:40:28.971Z,12.13
2018-07-21T17:42:57.498Z,13.10
2018-07-21T17:45:26.981Z,11.10
2018-07-21T17:47:55.444Z,10.67
2018-07-21T17:50:23.930Z,9.20
2018-07-21T17:52:52.442Z,9.63
2018-07-21T17:55:21.060Z,10.67
2018-07-21T17:57:49.527Z,12.73
2018-07-21T18:00:18.116Z,11.00
2018-07-21T18:02:46.596Z,12.00
2018-07-21T18:05:15.085Z,13.03
2018-07-21T18:07:43.555Z,11.43
2018-07-21T18:10:12.037Z,15.07
2018-07-21T18:12:40.546Z,11.27
2018-07-21T18:15:09.049Z,12.03
2018-07-21T18:17:37.523Z,11.97
2018-07-21T18:20:06.008Z,14.20
2018-07-21T18:22:34.493Z,13.47
2018-07-21T18:25:03.004Z,11.63
2018-07-21T18:27:31.458Z,13.47
2018-07-21T18:29:59.959Z,12.47
2018-07-21T18:32:28.422Z,9.73
2018-07-21T18:34:56.912Z,12.03
2018-07-21T18:37:25.472Z,13.17
2018-07-21T18:39:54.091Z,13.50
2018-07-21T18:42:22.611Z,17.73
2018-07-21T18:44:51.068Z,17.93
2018-07-21T18:47:19.747Z,19.33
2018-07-21T18:49:48.318Z,15.13
2018-07-21T18:52:17.010Z,10.13
2018-07-21T18:54:45.473Z,7.87
2018-07-21T18:57:13.976Z,7.27
2018-07-21T18:59:42.598Z,7.80
2018-07-21T19:02:11.156Z,6.20
2018-07-21T19:04:39.616Z,9.57
2018-07-21T19:07:08.089Z,7.07
2018-07-21T19:09:36.524Z,7.27
2018-07-21T19:12:10.542Z,6.83
2018-07-21T19:14:39.046Z,5.73
2018-07-21T19:17:07.453Z,5.90
2018-07-21T19:19:41.339Z,9.27
2018-07-21T19:22:09.836Z,9.90
2018-07-21T19:24:38.331Z,10.33
2018-07-21T19:27:12.297Z,8.43
2018-07-21T19:29:40.776Z,10.00
2018-07-21T19:32:14.683Z,8.13
2018-07-21T19:34:43.141Z,9.07
2018-07-21T19:37:17.108Z,9.80
2018-07-21T19:39:45.600Z,15.57
2018-07-21T19:42:14.172Z,14.50
2018-07-21T19:44:42.632Z,16.97
2018-07-21T19:47:11.247Z,18.30
2018-07-21T19:49:39.706Z,18.40
2018-07-21T19:52:08.207Z,14.83
2018-07-21T19:54:36.692Z,15.63
2018-07-21T19:57:05.364Z,18.97
2018-07-21T19:59:33.944Z,17.70
2018-07-21T20:02:02.544Z,14.37
2018-07-21T20:04:31.012Z,14.90
2018-07-21T20:06:59.499Z,16.53
2018-07-21T20:09:27.968Z,19.27
2018-07-21T20:11:56.569Z,22.43
2018-07-21T20:14:25.044Z,22.40
2018-07-21T20:16:53.550Z,24.03
2018-07-21T20:19:22.100Z,29.27
2018-07-21T20:21:50.680Z,31.00
2018-07-21T20:24:19.148Z,19.37
2018-07-21T20:26:47.637Z,12.27
2018-07-21T20:29:16.141Z,11.97
2018-07-21T20:31:44.623Z,8.07
2018-07-21T20:34:13.083Z,5.30
2018-07-21T20:36:41.568Z,6.03
2018-07-21T20:39:10.831Z,6.00
2018-07-21T20:41:39.340Z,8.73
2018-07-21T20:44:07.853Z,5.93
2018-07-21T20:46:36.479Z,5.97
2018-07-21T20:49:05.092Z,7.53
2018-07-21T20:51:33.624Z,7.93
2018-07-21T20:54:02.162Z,6.43
2018-07-21T20:56:30.704Z,6.30
2018-07-21T20:59:00.298Z,6.03
2018-07-21T21:01:28.765Z,5.93
2018-07-21T21:03:57.271Z,32.23
2018-07-21T21:06:25.819Z,123.93
2018-07-21T21:08:54.315Z,131.80
2018-07-21T21:11:22.778Z,74.53
2018-07-21T21:13:51.276Z,60.80
2018-07-21T21:16:19.742Z,39.43
2018-07-21T21:18:48.237Z,25.17
2018-07-21T21:21:16.904Z,16.27
2018-07-21T21:23:45.428Z,14.13
2018-07-21T21:26:17.143Z,15.07
2018-07-21T21:28:45.643Z,10.60
2018-07-21T21:31:14.184Z,12.30
2018-07-21T21:33:43.136Z,11.80
2018-07-21T21:36:11.644Z,9.77
2018-07-21T21:38:40.124Z,8.40
2018-07-21T21:41:08.989Z,13.37
2018-07-21T21:43:37.534Z,12.33
2018-07-21T21:46:06.361Z,11.63
2018-07-21T21:48:34.852Z,13.83
2018-07-21T21:51:03.365Z,12.17
2018-07-21T21:53:31.849Z,13.13
2018-07-21T21:56:00.312Z,11.37
2018-07-21T21:58:28.809Z,13.17
2018-07-21T22:01:05.229Z,13.70
2018-07-21T22:03:33.936Z,14.57
2018-07-21T22:06:02.428Z,13.13
2018-07-21T22:08:31.912Z,12.90
2018-07-21T22:11:00.678Z,14.77
2018-07-21T22:13:29.707Z,13.70
2018-07-21T22:15:58.801Z,14.10
2018-07-21T22:18:28.044Z,12.83
2018-07-21T22:20:56.797Z,13.57
2018-07-21T22:23:25.377Z,16.97
2018-07-21T22:25:53.872Z,13.70
2018-07-21T22:28:22.394Z,13.87
2018-07-21T22:30:50.895Z,16.53
2018-07-21T22:33:19.371Z,13.40
2018-07-21T22:35:47.849Z,13.03
2018-07-21T22:38:16.326Z,12.37
2018-07-21T22:40:44.804Z,14.33
2018-07-21T22:43:13.276Z,13.67
2018-07-21T22:45:41.740Z,13.83
2018-07-21T22:48:10.217Z,14.30
2018-07-21T22:50:38.764Z,14.53
2018-07-21T22:53:07.249Z,13.87
2018-07-21T22:55:35.736Z,14.23
2018-07-21T22:58:04.242Z,15.50
2018-07-21T23:00:32.698Z,16.43
2018-07-21T23:03:01.178Z,16.77
2018-07-21T23:05:30.678Z,16.17
2018-07-21T23:07:59.148Z,16.03
2018-07-21T23:10:28.141Z,17.43
2018-07-21T23:12:56.686Z,16.03
2018-07-21T23:15:25.143Z,17.37
2018-07-21T23:17:53.639Z,17.63
2018-07-21T23:20:22.132Z,17.27
2018-07-21T23:22:50.588Z,21.10
2018-07-21T23:25:19.137Z,22.03
2018-07-21T23:27:47.628Z,19.93
2018-07-21T23:30:16.132Z,22.37
2018-07-21T23:32:44.639Z,22.97
2018-07-21T23:35:13.125Z,25.57
2018-07-21T23:37:41.652Z,24.63
2018-07-21T23:40:10.139Z,26.30
2018-07-21T23:42:38.602Z,26.00
2018-07-21T23:45:07.204Z,24.83
2018-07-21T23:47:35.688Z,25.00
2018-07-21T23:50:04.268Z,24.40
2018-07-21T23:52:32.725Z,25.47
2018-07-21T23:55:01.249Z,23.07
2018-07-21T23:57:30.143Z,27.23
2018-07-21T23:59:58.620Z,32.87
